createdAt,value
2022-08-10T00:01:44.931Z,22.48
2022-08-10T00:04:21.530Z,22.45
2022-08-10T00:06:51.418Z,22.41
2022-08-10T00:09:21.401Z,22.38
2022-08-10T00:11:49.717Z,22.32
2022-08-10T00:14:17.982Z,22.27
2022-08-10T00:16:46.292Z,22.26
2022-08-10T00:19:16.668Z,22.27
2022-08-10T00:21:47.595Z,22.23
2022-08-10T00:24:16.115Z,22.20
2022-08-10T00:28:01.472Z,22.09
2022-08-10T00:29:34.694Z,21.98
2022-08-10T00:32:03.083Z,21.88
2022-08-10T00:34:33.066Z,21.81
2022-08-10T00:37:01.730Z,21.71
2022-08-10T00:39:35.864Z,21.63
2022-08-10T00:42:08.237Z,21.56
2022-08-10T00:44:37.936Z,21.49
2022-08-10T00:47:06.739Z,21.49
2022-08-10T00:49:35.589Z,21.47
2022-08-10T00:52:05.015Z,21.38
2022-08-10T00:54:33.610Z,21.32
2022-08-10T00:57:16.970Z,21.30
2022-08-10T00:59:59.114Z,21.27
2022-08-10T01:02:29.555Z,21.27
2022-08-10T01:05:02.271Z,21.23
2022-08-10T01:08:02.048Z,21.20
2022-08-10T01:10:42.770Z,21.14
2022-08-10T01:13:18.224Z,21.06
2022-08-10T01:15:57.117Z,21.01
2022-08-10T01:18:37.786Z,21.02
2022-08-10T01:21:54.168Z,20.98
2022-08-10T01:25:00.320Z,20.99
2022-08-10T01:27:34.158Z,20.96
2022-08-10T01:30:07.984Z,21.01
2022-08-10T01:32:44.199Z,21.01
2022-08-10T01:35:18.569Z,21.02
2022-08-10T01:37:52.646Z,20.99
2022-08-10T01:40:26.791Z,21.01
2022-08-10T01:43:07.927Z,21.01
2022-08-10T01:45:45.593Z,21.04
2022-08-10T01:48:31.667Z,21.03
2022-08-10T01:51:10.945Z,21.01
2022-08-10T01:53:44.212Z,20.97
2022-08-10T01:56:15.696Z,20.91
2022-08-10T01:58:46.311Z,20.90
2022-08-10T02:01:19.997Z,20.92
2022-08-10T02:04:04.344Z,20.93
2022-08-10T02:06:36.969Z,20.91
2022-08-10T02:09:07.865Z,20.83
2022-08-10T02:12:07.735Z,20.80
2022-08-10T02:14:32.952Z,20.72
2022-08-10T02:17:06.787Z,20.68
2022-08-10T02:19:37.712Z,20.63
2022-08-10T02:22:36.059Z,20.61
2022-08-10T02:24:57.512Z,20.58
2022-08-10T02:27:29.287Z,20.56
2022-08-10T02:29:59.406Z,20.55
2022-08-10T02:32:37.893Z,20.53
2022-08-10T02:35:21.972Z,20.55
2022-08-10T02:37:54.173Z,20.53
2022-08-10T02:45:18.298Z,20.53
2022-08-10T02:45:27.644Z,20.47
2022-08-10T02:46:18.286Z,20.41
2022-08-10T02:48:56.307Z,20.39
2022-08-10T02:52:07.541Z,20.31
2022-08-10T02:54:23.909Z,20.28
2022-08-10T02:56:56.785Z,20.27
2022-08-10T02:59:40.168Z,20.26
2022-08-10T03:02:12.087Z,20.23
2022-08-10T03:04:55.627Z,20.25
2022-08-10T03:07:43.281Z,20.24
2022-08-10T03:10:17.809Z,20.26
2022-08-10T03:12:50.611Z,20.25
2022-08-10T03:15:21.080Z,20.25
2022-08-10T03:17:57.479Z,20.27
2022-08-10T03:20:36.830Z,20.29
2022-08-10T03:23:11.227Z,20.30
2022-08-10T03:25:40.214Z,20.30
2022-08-10T03:28:10.304Z,20.32
2022-08-10T03:30:47.045Z,20.36
2022-08-10T03:33:16.884Z,20.36
2022-08-10T03:36:41.692Z,20.36
2022-08-10T03:38:35.524Z,20.33
2022-08-10T03:41:05.547Z,20.30
2022-08-10T03:43:35.732Z,20.28
2022-08-10T03:46:09.596Z,20.27
2022-08-10T03:48:48.874Z,20.26
2022-08-10T03:51:21.696Z,20.22
2022-08-10T03:54:04.335Z,20.22
2022-08-10T03:56:36.224Z,20.21
2022-08-10T03:59:05.856Z,20.16
2022-08-10T04:02:45.385Z,20.09
2022-08-10T04:04:25.376Z,20.04
2022-08-10T04:07:00.368Z,19.99
2022-08-10T04:09:42.980Z,19.99
2022-08-10T04:12:20.366Z,19.95
2022-08-10T04:14:51.927Z,19.95
2022-08-10T04:18:02.968Z,19.91
2022-08-10T04:20:19.622Z,19.89
2022-08-10T04:22:53.656Z,19.82
2022-08-10T04:25:23.273Z,19.74
2022-08-10T04:27:52.250Z,19.70
2022-08-10T04:30:20.764Z,19.67
2022-08-10T04:32:55.198Z,19.59
2022-08-10T04:35:25.287Z,19.52
2022-08-10T04:37:58.045Z,19.46
2022-08-10T04:40:29.092Z,19.44
2022-08-10T04:43:05.785Z,19.40
2022-08-10T04:45:49.888Z,19.33
2022-08-10T04:48:42.400Z,19.29
2022-08-10T04:51:16.869Z,19.24
2022-08-10T04:54:05.024Z,19.21
2022-08-10T04:56:38.766Z,19.19
2022-08-10T04:59:08.533Z,19.17
2022-08-10T05:02:30.168Z,19.20
2022-08-10T05:04:37.515Z,19.23
2022-08-10T05:07:09.144Z,19.24
2022-08-10T05:10:02.556Z,19.19
2022-08-10T05:12:28.124Z,19.17
2022-08-10T05:14:56.648Z,19.19
2022-08-10T05:17:27.997Z,19.21
2022-08-10T05:20:03.719Z,19.21
2022-08-10T05:22:38.451Z,19.19
2022-08-10T05:25:10.346Z,19.15
2022-08-10T05:27:39.108Z,19.17
2022-08-10T05:30:09.458Z,19.18
2022-08-10T05:32:57.872Z,19.23
2022-08-10T05:35:27.614Z,19.27
2022-08-10T05:38:09.087Z,19.33
2022-08-10T05:40:46.253Z,19.42
2022-08-10T05:43:16.957Z,19.44
2022-08-10T05:46:19.636Z,19.55
2022-08-10T05:48:56.965Z,19.59
2022-08-10T05:51:24.563Z,19.62
2022-08-10T05:54:02.862Z,19.65
2022-08-10T05:56:54.192Z,19.72
2022-08-10T06:00:11.145Z,19.76
2022-08-10T06:02:30.898Z,19.76
2022-08-10T06:05:11.862Z,19.75
2022-08-10T06:07:42.698Z,19.75
2022-08-10T06:10:28.541Z,19.74
2022-08-10T06:13:29.653Z,19.72
2022-08-10T06:16:06.946Z,19.71
2022-08-10T06:18:37.041Z,19.73
2022-08-10T06:21:06.148Z,19.77
2022-08-10T06:23:35.807Z,19.92
2022-08-10T06:26:10.103Z,20.04
2022-08-10T06:29:01.953Z,20.19
2022-08-10T06:31:46.994Z,20.30
2022-08-10T06:34:20.572Z,20.47
2022-08-10T06:36:49.450Z,20.56
2022-08-10T06:39:32.976Z,20.68
2022-08-10T06:42:14.792Z,20.82
2022-08-10T06:44:55.370Z,20.96
2022-08-10T06:47:27.927Z,21.05
2022-08-10T06:49:59.646Z,21.17
2022-08-10T06:52:32.180Z,21.26
2022-08-10T06:55:05.524Z,21.34
2022-08-10T06:57:39.995Z,21.45
2022-08-10T07:00:11.743Z,21.60
2022-08-10T07:02:48.117Z,21.68
2022-08-10T07:05:21.382Z,21.78
2022-08-10T07:07:52.470Z,21.92
2022-08-10T07:10:23.782Z,21.98
2022-08-10T07:13:00.122Z,22.12
2022-08-10T07:15:59.766Z,22.25
2022-08-10T07:18:22.106Z,22.40
2022-08-10T07:20:54.170Z,22.53
2022-08-10T07:23:57.814Z,22.61
2022-08-10T07:26:15.437Z,22.79
2022-08-10T07:28:47.995Z,22.87
2022-08-10T07:31:54.895Z,23.01
2022-08-10T07:34:10.709Z,23.15
2022-08-10T07:36:41.841Z,23.20
2022-08-10T07:39:11.698Z,23.28
2022-08-10T07:41:42.999Z,23.45
2022-08-10T07:44:13.107Z,23.50
2022-08-10T07:46:53.831Z,23.54
2022-08-10T07:49:27.807Z,23.63
2022-08-10T07:51:57.548Z,23.69
2022-08-10T07:54:29.410Z,23.80
2022-08-10T07:57:05.357Z,23.93
2022-08-10T07:59:39.134Z,24.02
2022-08-10T08:02:14.878Z,24.12
2022-08-10T08:04:50.298Z,24.24
2022-08-10T08:07:21.445Z,24.34
2022-08-10T08:09:57.997Z,24.49
2022-08-10T08:12:31.464Z,24.57
2022-08-10T08:16:14.268Z,24.68
2022-08-10T08:18:00.553Z,24.77
2022-08-10T08:20:30.422Z,24.91
2022-08-10T08:24:06.698Z,24.97
2022-08-10T08:25:50.249Z,25.10
2022-08-10T08:28:19.284Z,25.16
2022-08-10T08:30:49.200Z,25.30
2022-08-10T08:33:42.145Z,25.44
2022-08-10T08:36:10.659Z,25.58
2022-08-10T08:38:40.052Z,25.77
2022-08-10T08:41:30.374Z,25.88
2022-08-10T08:44:07.439Z,26.02
2022-08-10T08:46:59.492Z,26.13
2022-08-10T08:50:05.765Z,26.26
2022-08-10T08:52:53.653Z,26.39
2022-08-10T08:55:55.201Z,26.52
2022-08-10T08:58:38.428Z,26.67
2022-08-10T09:01:23.403Z,26.79
2022-08-10T09:04:25.569Z,26.96
2022-08-10T09:07:39.508Z,27.12
2022-08-10T09:10:08.258Z,27.29
2022-08-10T09:12:49.229Z,27.41
2022-08-10T09:15:40.427Z,27.54
2022-08-10T09:18:21.101Z,27.65
2022-08-10T09:20:57.463Z,27.79
2022-08-10T09:24:05.208Z,27.88
2022-08-10T09:26:43.064Z,28.03
2022-08-10T09:29:14.650Z,28.16
2022-08-10T09:32:54.310Z,28.25
2022-08-10T09:36:22.444Z,28.32
2022-08-10T09:38:02.271Z,28.45
2022-08-10T09:41:00.641Z,28.57
2022-08-10T09:43:42.325Z,28.70
2022-08-10T09:46:33.599Z,28.76
2022-08-10T09:49:17.305Z,28.81
2022-08-10T09:52:03.683Z,28.86
2022-08-10T09:54:48.979Z,28.90
2022-08-10T09:57:44.313Z,28.95
2022-08-10T10:00:19.165Z,29.07
2022-08-10T10:03:06.536Z,29.10
2022-08-10T10:05:51.404Z,29.15
2022-08-10T10:08:33.827Z,29.26
2022-08-10T10:11:08.960Z,29.37
2022-08-10T10:14:03.121Z,29.46
2022-08-10T10:17:01.358Z,29.56
2022-08-10T10:19:44.735Z,29.71
2022-08-10T10:22:38.312Z,29.76
2022-08-10T10:25:19.738Z,29.90
2022-08-10T10:28:01.481Z,30.06
2022-08-10T10:30:40.252Z,30.16
2022-08-10T10:33:14.954Z,30.28
2022-08-10T10:35:52.378Z,30.36
2022-08-10T10:38:24.394Z,30.50
2022-08-10T10:41:03.327Z,30.60
2022-08-10T10:43:43.996Z,30.69
2022-08-10T10:46:28.033Z,30.76
2022-08-10T10:49:04.865Z,30.78
2022-08-10T10:51:39.977Z,30.82
2022-08-10T10:54:13.183Z,30.82
2022-08-10T10:56:53.667Z,30.84
2022-08-10T10:59:55.739Z,30.90
2022-08-10T11:02:39.000Z,30.95
2022-08-10T11:05:20.488Z,30.98
2022-08-10T11:08:01.186Z,31.02
2022-08-10T11:10:46.273Z,31.10
2022-08-10T11:14:25.410Z,31.13
2022-08-10T11:16:31.630Z,31.30
2022-08-10T11:19:12.038Z,31.38
2022-08-10T11:21:56.234Z,31.45
2022-08-10T11:24:48.051Z,31.56
2022-08-10T11:27:29.958Z,31.64
2022-08-10T11:30:07.450Z,31.71
2022-08-10T11:32:54.918Z,31.79
2022-08-10T11:35:35.020Z,31.88
2022-08-10T11:38:31.925Z,31.93
2022-08-10T11:42:06.137Z,31.99
2022-08-10T11:44:19.088Z,32.00
2022-08-10T11:46:54.971Z,32.09
2022-08-10T11:49:32.470Z,32.15
2022-08-10T11:52:08.104Z,32.17
2022-08-10T11:54:43.697Z,32.22
2022-08-10T11:57:13.924Z,32.25
2022-08-10T11:59:59.582Z,32.27
2022-08-10T12:02:34.638Z,32.32
2022-08-10T12:05:08.670Z,32.40
2022-08-10T12:10:03.972Z,32.46
2022-08-10T12:10:36.397Z,32.55
2022-08-10T12:14:19.757Z,32.61
2022-08-10T12:16:50.728Z,32.68
2022-08-10T12:19:25.602Z,32.78
2022-08-10T12:22:05.609Z,32.86
2022-08-10T12:24:41.879Z,32.94
2022-08-10T12:27:15.531Z,33.03
2022-08-10T12:29:51.047Z,33.10
2022-08-10T12:32:28.553Z,33.13
2022-08-10T12:35:02.791Z,33.21
2022-08-10T12:37:37.046Z,33.29
2022-08-10T12:40:34.415Z,33.31
2022-08-10T12:44:03.999Z,33.34
2022-08-10T12:46:06.770Z,33.41
2022-08-10T12:48:43.044Z,33.48
2022-08-10T12:51:18.976Z,33.57
2022-08-10T12:53:55.082Z,33.71
2022-08-10T12:56:29.364Z,33.82
2022-08-10T12:59:01.698Z,33.91
2022-08-10T13:02:07.438Z,34.00
2022-08-10T13:04:33.972Z,34.11
2022-08-10T13:07:04.377Z,34.25
2022-08-10T13:09:56.210Z,34.40
2022-08-10T13:12:44.678Z,34.71
2022-08-10T13:15:45.225Z,34.39
2022-08-10T13:18:18.767Z,34.63
2022-08-10T13:20:53.025Z,35.25
2022-08-10T13:23:25.070Z,35.99
2022-08-10T13:25:56.411Z,36.73
2022-08-10T13:28:40.116Z,37.37
2022-08-10T13:31:18.253Z,37.98
2022-08-10T13:34:40.260Z,38.51
2022-08-10T13:36:41.890Z,39.10
2022-08-10T13:39:14.133Z,39.62
2022-08-10T13:41:45.505Z,40.08
2022-08-10T13:44:21.649Z,40.57
2022-08-10T13:46:53.173Z,41.03
2022-08-10T13:49:22.469Z,41.14
2022-08-10T13:51:54.372Z,41.15
2022-08-10T13:54:28.673Z,41.15
2022-08-10T13:56:58.087Z,41.18
2022-08-10T14:00:36.349Z,41.27
2022-08-10T14:02:37.537Z,41.35
2022-08-10T14:05:08.375Z,41.62
2022-08-10T14:07:45.163Z,41.96
2022-08-10T14:11:04.110Z,42.34
2022-08-10T14:13:27.910Z,42.44
2022-08-10T14:15:58.797Z,42.39
2022-08-10T14:18:27.984Z,42.40
2022-08-10T14:21:00.098Z,42.56
2022-08-10T14:23:28.418Z,42.68
2022-08-10T14:26:03.116Z,42.80
2022-08-10T14:28:37.364Z,43.07
2022-08-10T14:31:10.911Z,43.38
2022-08-10T14:33:42.823Z,43.66
2022-08-10T14:36:19.159Z,43.87
2022-08-10T14:38:55.780Z,43.92
2022-08-10T14:42:01.084Z,43.97
2022-08-10T14:44:19.661Z,44.34
2022-08-10T14:46:55.718Z,44.51
2022-08-10T14:49:27.300Z,44.31
2022-08-10T14:52:02.592Z,44.10
2022-08-10T14:54:34.918Z,43.80
2022-08-10T14:57:11.242Z,43.34
2022-08-10T15:00:25.133Z,43.07
2022-08-10T15:02:55.873Z,43.05
2022-08-10T15:05:39.979Z,43.53
2022-08-10T15:08:12.107Z,44.03
2022-08-10T15:10:42.174Z,44.54
2022-08-10T15:13:33.472Z,44.88
2022-08-10T15:16:13.078Z,45.20
2022-08-10T15:18:57.854Z,45.60
2022-08-10T15:21:43.438Z,45.93
2022-08-10T15:24:36.612Z,46.24
2022-08-10T15:27:08.961Z,46.13
2022-08-10T15:29:56.774Z,45.82
2022-08-10T15:32:52.536Z,45.40
2022-08-10T15:35:42.001Z,44.91
2022-08-10T15:38:11.138Z,44.67
2022-08-10T15:40:52.187Z,44.64
2022-08-10T15:43:24.889Z,44.75
2022-08-10T15:46:00.013Z,44.81
2022-08-10T15:48:32.669Z,45.18
2022-08-10T15:51:07.512Z,45.24
2022-08-10T15:53:46.942Z,45.19
2022-08-10T15:56:28.374Z,45.28
2022-08-10T15:59:08.268Z,45.64
2022-08-10T16:02:14.621Z,45.98
2022-08-10T16:04:37.159Z,46.02
2022-08-10T16:07:10.542Z,46.12
2022-08-10T16:10:22.540Z,46.18
2022-08-10T16:12:40.350Z,46.29
2022-08-10T16:15:13.714Z,46.72
2022-08-10T16:17:55.485Z,47.06
2022-08-10T16:20:31.344Z,46.92
2022-08-10T16:23:04.897Z,46.62
2022-08-10T16:25:51.338Z,46.70
2022-08-10T16:28:24.112Z,46.89
2022-08-10T16:30:55.359Z,47.04
2022-08-10T16:33:26.227Z,47.00
2022-08-10T16:36:18.775Z,46.91
2022-08-10T16:38:51.432Z,46.86
2022-08-10T16:42:02.666Z,46.78
2022-08-10T16:44:12.903Z,46.72
2022-08-10T16:46:45.705Z,46.88
2022-08-10T16:49:18.504Z,47.16
2022-08-10T16:51:52.869Z,47.25
2022-08-10T16:54:27.517Z,47.53
2022-08-10T16:57:02.357Z,47.98
2022-08-10T16:59:38.997Z,48.45
2022-08-10T17:02:09.100Z,48.83
2022-08-10T17:04:47.319Z,48.94
2022-08-10T17:07:18.842Z,48.73
2022-08-10T17:09:58.608Z,48.51
2022-08-10T17:12:29.738Z,48.46
2022-08-10T17:15:09.432Z,48.34
2022-08-10T17:17:43.115Z,48.24
2022-08-10T17:20:32.141Z,48.08
2022-08-10T17:23:14.194Z,48.03
2022-08-10T17:25:50.726Z,48.16
2022-08-10T17:28:33.046Z,48.37
2022-08-10T17:31:24.022Z,48.37
2022-08-10T17:34:00.609Z,48.23
2022-08-10T17:36:34.934Z,48.09
2022-08-10T17:39:04.456Z,48.17
2022-08-10T17:41:36.809Z,48.29
2022-08-10T17:44:08.062Z,48.41
2022-08-10T17:46:39.937Z,48.33
2022-08-10T17:49:10.783Z,47.97
2022-08-10T17:51:40.909Z,47.63
2022-08-10T17:54:16.362Z,47.35
2022-08-10T17:56:47.657Z,47.04
2022-08-10T17:59:17.189Z,46.95
2022-08-10T18:01:58.359Z,46.88
2022-08-10T18:04:34.202Z,46.71
2022-08-10T18:07:11.466Z,46.51
2022-08-10T18:09:43.544Z,46.27
2022-08-10T18:12:18.674Z,46.10
2022-08-10T18:14:51.371Z,45.96
2022-08-10T18:17:23.013Z,45.80
2022-08-10T18:19:55.595Z,45.80
2022-08-10T18:22:25.241Z,45.75
2022-08-10T18:24:55.339Z,45.81
2022-08-10T18:28:01.656Z,45.91
2022-08-10T18:30:18.846Z,45.99
2022-08-10T18:32:50.587Z,45.99
2022-08-10T18:35:20.678Z,45.94
2022-08-10T18:37:52.172Z,45.86
2022-08-10T18:40:21.284Z,45.77
2022-08-10T18:44:06.777Z,45.56
2022-08-10T18:46:00.121Z,45.28
2022-08-10T18:48:38.638Z,44.89
2022-08-10T18:51:08.948Z,44.51
2022-08-10T18:53:41.355Z,43.91
2022-08-10T18:56:19.422Z,43.10
2022-08-10T18:59:09.935Z,42.06
2022-08-10T19:02:08.307Z,41.09
2022-08-10T19:04:56.510Z,40.36
2022-08-10T19:07:42.714Z,39.68
2022-08-10T19:10:25.250Z,39.26
2022-08-10T19:13:01.031Z,38.75
2022-08-10T19:15:40.324Z,37.79
2022-08-10T19:18:33.032Z,36.66
2022-08-10T19:21:12.794Z,35.64
2022-08-10T19:24:00.469Z,34.64
2022-08-10T19:26:44.015Z,33.78
2022-08-10T19:30:09.561Z,33.06
2022-08-10T19:32:33.534Z,32.38
2022-08-10T19:35:09.137Z,31.90
2022-08-10T19:37:45.027Z,31.49
2022-08-10T19:40:44.083Z,31.08
2022-08-10T19:44:00.480Z,30.74
2022-08-10T19:46:19.335Z,30.36
2022-08-10T19:49:00.250Z,30.19
2022-08-10T19:51:38.267Z,29.97
2022-08-10T19:54:14.859Z,29.75
2022-08-10T19:57:02.057Z,29.60
2022-08-10T20:00:16.935Z,29.40
2022-08-10T20:02:33.502Z,29.26
2022-08-10T20:05:09.329Z,29.10
2022-08-10T20:07:48.495Z,29.07
2022-08-10T20:10:22.955Z,28.98
2022-08-10T20:12:56.788Z,28.92
2022-08-10T20:15:41.604Z,28.83
2022-08-10T20:18:20.227Z,28.68
2022-08-10T20:20:53.091Z,28.61
2022-08-10T20:23:25.269Z,28.61
2022-08-10T20:25:58.541Z,28.59
2022-08-10T20:28:36.700Z,28.60
2022-08-10T20:31:11.608Z,28.60
2022-08-10T20:34:00.661Z,28.60
2022-08-10T20:36:34.949Z,28.61
2022-08-10T20:39:17.900Z,28.60
2022-08-10T20:41:58.796Z,28.57
2022-08-10T20:44:39.429Z,28.54
2022-08-10T20:47:13.006Z,28.54
2022-08-10T20:49:49.734Z,28.52
2022-08-10T20:52:20.221Z,28.46
2022-08-10T20:54:52.496Z,28.48
2022-08-10T20:57:54.790Z,28.44
2022-08-10T21:00:25.302Z,28.48
2022-08-10T21:03:21.086Z,28.46
2022-08-10T21:06:00.374Z,28.48
2022-08-10T21:08:44.332Z,28.44
2022-08-10T21:11:22.355Z,28.44
2022-08-10T21:14:13.348Z,28.41
2022-08-10T21:16:50.678Z,28.35
2022-08-10T21:19:39.466Z,28.33
2022-08-10T21:22:22.445Z,28.36
2022-08-10T21:25:02.178Z,28.23
2022-08-10T21:27:55.320Z,28.20
2022-08-10T21:30:37.778Z,28.14
2022-08-10T21:33:12.040Z,28.09
2022-08-10T21:35:45.095Z,28.03
2022-08-10T21:38:24.340Z,27.94
2022-08-10T21:41:56.941Z,27.84
2022-08-10T21:44:53.089Z,27.78
2022-08-10T21:48:06.948Z,27.68
2022-08-10T21:51:09.407Z,27.57
2022-08-10T21:54:07.477Z,27.45
2022-08-10T21:57:01.858Z,27.36
2022-08-10T21:59:56.436Z,27.32
2022-08-10T22:02:50.334Z,27.27
2022-08-10T22:05:42.762Z,27.18
2022-08-10T22:08:31.536Z,27.01
2022-08-10T22:11:21.578Z,26.81
2022-08-10T22:14:10.706Z,26.57
2022-08-10T22:17:05.105Z,26.49
2022-08-10T22:19:54.856Z,26.42
2022-08-10T22:22:56.269Z,26.35
2022-08-10T22:25:57.015Z,26.28
2022-08-10T22:28:48.736Z,26.31
2022-08-10T22:31:53.708Z,26.24
2022-08-10T22:35:02.695Z,26.19
2022-08-10T22:38:07.690Z,26.11
2022-08-10T22:40:53.922Z,26.07
2022-08-10T22:43:45.406Z,26.01
2022-08-10T22:46:37.822Z,26.02
2022-08-10T22:49:06.732Z,26.01
2022-08-10T22:52:01.638Z,25.86
2022-08-10T22:54:52.722Z,25.76
2022-08-10T22:57:38.800Z,25.61
2022-08-10T23:00:15.933Z,25.46
2022-08-10T23:02:52.397Z,25.29
2022-08-10T23:05:31.501Z,25.22
2022-08-10T23:08:05.591Z,25.17
2022-08-10T23:10:40.317Z,25.13
2022-08-10T23:13:12.766Z,25.00
2022-08-10T23:16:16.415Z,24.90
2022-08-10T23:19:07.091Z,24.83
2022-08-10T23:22:03.514Z,24.76
2022-08-10T23:24:37.329Z,24.68
2022-08-10T23:27:10.305Z,24.49
2022-08-10T23:39:26.601Z,23.67
2022-08-10T23:42:04.606Z,23.56
2022-08-10T23:44:37.254Z,23.47
2022-08-10T23:47:06.876Z,23.43
2022-08-10T23:49:36.864Z,23.43
2022-08-10T23:52:13.596Z,23.32
2022-08-10T23:54:52.060Z,23.32
2022-08-10T23:57:23.168Z,23.32
2022-08-10T23:59:58.185Z,23.35
